Westminster, CO

5:04 PM MST on February 06, 2016 (GMT -0700)
Gold Ridge | | Change Station
CLOSE
Current Station
Personal Weather Station
Location: Arvada, CO
Elevation: 5440 ft
Nearby Weather Stations

Elev 5440 ft 39.83 °N, 105.07 °W | Updated 10 seconds ago

Partly Cloudy
Partly Cloudy
51.1 °F
Feels Like 51.1 °F
N
0.4
Wind Variable Wind from North
Gusts 2.5 mph

Today
High -- | Low -- °F
--% Chance of Precip.
Yesterday
High -- | Low -- °F
Precip. -- in
Pressure 30.10 in
Visibility 30.0 miles
Clouds Scattered Clouds 10000 ft
Mostly Cloudy 20000 ft
Dew Point 14 °F
Humidity 23%
Rainfall 0.02 in
Snow Depth Not available.
7:03 AM 5:25 PM
Waning Crescent, 3% visible
METAR KBJC 062350Z COR 26021G29KT 30SM SCT100 BKN200 08/M09 A3010
Pressure 30.10 in
Visibility 30.0 miles
Clouds Scattered Clouds 10000 ft
Mostly Cloudy 20000 ft
Dew Point 14 °F
Humidity 23%
Rainfall 0.02 in
Snow Depth Not available.
7:03 AM 5:25 PM
Waning Crescent, 3% visible
METAR KBJC 062350Z COR 26021G29KT 30SM SCT100 BKN200 08/M09 A3010

10-Day Weather Forecast

Almanac

Astronomy

Feb. 06, 2016 Rise Set
Actual Time
Civil Twilight
Nautical Twilight
Astronomical Twilight
Moon
Length of Visible Light
Length of Day
Tomorrow will be .
, % of the Moon is Illuminated

Today's Extremes

State Highs State Lows

Community

WunderPhotos

Upload Photos

1,891,105 photos uploaded!

WunderBlog® & News

Nearby

Air Quality

  Air Quality AQ Index Pollutant
Not available.

Snow Depth

Station Depth Elevation

Earthquake Activity

City Distance Mag. Time & Date
Minimum magnitude displayed is 2.5.

Coastal Water Temperatures

Place Temperature

Stations

Nearby Weather Stations

Station Location Temp. Windchill Dew Point Humidity Wind Precip. Elev Updated Type
                   

Watches & Warnings

There are currently no watches in effect.